Time;durP1;ratioP1;P1;durP2;ratioP2;P2;SDS_P1;SDS_P2;PMS_P1;PMS_P2;Temp;Humidity;BMP_temperature;BMP_pressure;BME280_temperature;BME280_humidity;BME280_pressure;Samples;Min_cycle;Max_cycle;Signal;HPM_P1;HPM_P2
2022/02/14 00:02:21;;;;;;;5.88;2.70;;;;;;;1.93;51.82;100074.00;4991100;28;106009;-75
2022/02/14 00:04:46;;;;;;;4.90;3.25;;;;;;;1.90;51.83;100092.63;4990888;28;106033;-75
2022/02/14 00:07:11;;;;;;;5.93;3.22;;;;;;;1.90;51.84;100070.75;4990487;28;107824;-76
2022/02/14 00:09:37;;;;;;;6.18;3.40;;;;;;;1.90;51.63;100076.00;4991792;28;106047;-74
2022/02/14 00:12:03;;;;;;;7.50;3.30;;;;;;;1.84;51.58;100067.63;4990764;28;105829;-75
2022/02/14 00:14:28;;;;;;;9.25;4.32;;;;;;;1.83;51.71;100078.28;4990739;28;106602;-73
2022/02/14 00:16:54;;;;;;;7.90;3.92;;;;;;;1.79;51.64;100071.56;4990321;28;106270;-75
2022/02/14 00:19:20;;;;;;;7.15;4.07;;;;;;;1.71;51.66;100079.19;4991685;28;106698;-75
2022/02/14 00:21:47;;;;;;;7.80;4.05;;;;;;;1.66;52.04;100074.31;4990968;28;106142;-75
2022/02/14 00:24:12;;;;;;;8.30;4.65;;;;;;;1.56;52.13;100068.91;4991000;28;105917;-75
2022/02/14 00:26:38;;;;;;;5.80;3.33;;;;;;;1.48;52.16;100071.28;4990719;28;105809;-74
2022/02/14 00:29:03;;;;;;;13.52;4.25;;;;;;;1.40;52.22;100071.84;4990293;28;106296;-74
2022/02/14 00:31:29;;;;;;;8.05;4.55;;;;;;;1.33;52.50;100057.50;4990984;28;105892;-77
2022/02/14 00:33:54;;;;;;;6.88;3.85;;;;;;;1.28;52.56;100063.06;4990349;28;105837;-77
2022/02/14 00:36:20;;;;;;;6.30;3.65;;;;;;;1.26;52.81;100075.50;4990745;28;106083;-77
2022/02/14 00:38:45;;;;;;;6.13;3.72;;;;;;;1.35;52.94;100066.09;4990610;28;105909;-77
2022/02/14 00:41:10;;;;;;;6.30;3.80;;;;;;;1.36;52.49;100062.53;4989646;28;105919;-74
2022/02/14 00:43:36;;;;;;;5.82;3.30;;;;;;;1.33;52.62;100063.59;4990169;28;106209;-76
2022/02/14 00:46:01;;;;;;;9.38;4.95;;;;;;;1.29;52.52;100062.13;4990263;28;105818;-75
2022/02/14 00:48:27;;;;;;;8.13;4.00;;;;;;;1.28;53.01;100065.69;4991064;28;106313;-76
2022/02/14 00:50:52;;;;;;;5.50;3.45;;;;;;;1.34;52.77;100069.69;4990745;28;106263;-74
2022/02/14 00:53:19;;;;;;;11.10;5.35;;;;;;;1.28;52.49;100060.44;4990299;28;105876;-75
2022/02/14 00:55:45;;;;;;;10.20;5.18;;;;;;;1.09;52.18;100058.34;4990090;28;106135;-74
2022/02/14 00:58:10;;;;;;;9.65;4.47;;;;;;;0.96;52.86;100054.97;4989446;28;106131;-76
2022/02/14 01:00:35;;;;;;;9.00;4.70;;;;;;;0.89;53.21;100056.34;4989300;28;106196;-75
2022/02/14 01:03:02;;;;;;;8.18;4.97;;;;;;;0.84;53.44;100064.56;4989987;28;106679;-76
2022/02/14 01:05:28;;;;;;;9.00;4.43;;;;;;;0.84;53.34;100064.56;4988089;28;107956;-72
2022/02/14 01:07:53;;;;;;;8.57;4.47;;;;;;;0.79;53.63;100061.41;4990512;28;106053;-75
2022/02/14 01:10:18;;;;;;;9.32;4.90;;;;;;;0.71;53.64;100055.88;4990056;28;105798;-75
2022/02/14 01:12:44;;;;;;;9.98;5.95;;;;;;;0.57;53.52;100056.88;4994891;28;106333;-81
2022/02/14 01:15:10;;;;;;;11.90;5.63;;;;;;;0.45;53.53;100054.19;5000448;28;105861;-78
2022/02/14 01:17:37;;;;;;;10.50;5.55;;;;;;;0.36;54.46;100049.59;5000293;28;106237;-79
2022/02/14 01:20:05;;;;;;;11.25;6.10;;;;;;;0.27;54.05;100052.84;4998270;28;106387;-80
2022/02/14 01:22:30;;;;;;;10.88;6.43;;;;;;;0.19;54.24;100045.50;4999375;28;107295;-78
2022/02/14 01:24:55;;;;;;;10.35;5.47;;;;;;;0.14;54.91;100039.78;4999351;28;106109;-77
2022/02/14 01:27:21;;;;;;;13.65;6.78;;;;;;;0.11;54.58;100043.44;4998698;28;106143;-78
2022/02/14 01:29:46;;;;;;;13.07;5.57;;;;;;;0.10;54.86;100036.53;4995735;28;106173;-77
2022/02/14 01:32:12;;;;;;;12.02;5.53;;;;;;;0.07;54.90;100036.75;4998815;28;114519;-74
2022/02/14 01:34:37;;;;;;;13.98;6.82;;;;;;;0.03;55.35;100027.44;4999545;28;106443;-74
2022/02/14 01:37:03;;;;;;;14.40;6.93;;;;;;;-0.03;54.96;100026.06;4998110;28;106146;-72
2022/02/14 01:39:29;;;;;;;13.98;6.78;;;;;;;-0.07;54.95;100023.75;5000091;28;106117;-74
2022/02/14 01:41:57;;;;;;;12.98;6.20;;;;;;;-0.09;55.04;100023.03;4998979;28;106408;-79
2022/02/14 01:44:36;;;;;;;11.02;5.75;;;;;;;-0.15;55.50;100023.44;4997769;28;106004;-76
2022/02/14 01:47:03;;;;;;;13.80;6.40;;;;;;;-0.17;55.46;100013.09;4998495;28;105871;-77
2022/02/14 01:49:28;;;;;;;12.60;6.53;;;;;;;-0.21;55.72;100011.63;5000506;28;106276;-73
2022/02/14 01:51:53;;;;;;;12.27;6.32;;;;;;;-0.24;55.68;100002.19;4999019;28;105965;-78
2022/02/14 01:54:19;;;;;;;12.82;6.65;;;;;;;-0.26;55.52;100008.47;4994653;28;105997;-76
2022/02/14 01:56:44;;;;;;;15.10;7.50;;;;;;;-0.33;55.54;100005.44;5000628;28;105789;-74
2022/02/14 01:59:09;;;;;;;21.48;8.88;;;;;;;-0.44;55.95;100003.53;4997153;28;105844;-76
2022/02/14 02:01:35;;;;;;;20.17;9.00;;;;;;;-0.56;55.23;99996.53;4998050;28;117296;-80
2022/02/14 02:04:00;;;;;;;19.95;8.38;;;;;;;-0.70;55.62;99989.59;5001533;28;106740;-82
2022/02/14 02:06:25;;;;;;;23.70;9.52;;;;;;;-0.81;56.37;99989.50;4997410;28;105983;-73
2022/02/14 02:08:51;;;;;;;20.67;10.80;;;;;;;-0.91;56.25;99989.28;4992521;28;106293;-75
2022/02/14 02:14:00;;;;;;;23.45;10.13;;;;;;;-1.13;56.62;99969.75;4988317;28;105939;-72
2022/02/14 02:16:26;;;;;;;20.58;10.32;;;;;;;-1.23;56.89;99982.59;4989186;28;106079;-80
2022/02/14 02:18:51;;;;;;;19.88;9.88;;;;;;;-1.29;57.48;99977.75;4988687;28;106153;-77
2022/02/14 02:21:17;;;;;;;17.20;8.85;;;;;;;-1.33;57.62;99985.91;4989471;28;106589;-78
2022/02/14 02:23:42;;;;;;;22.90;9.35;;;;;;;-1.37;57.53;99972.19;4989172;28;105893;-74
2022/02/14 02:26:08;;;;;;;21.52;9.93;;;;;;;-1.37;57.75;99965.22;4989272;28;106204;-73
2022/02/14 02:28:33;;;;;;;21.30;9.70;;;;;;;-1.40;57.46;99965.38;4989375;28;106146;-72
2022/02/14 02:31:03;;;;;;;18.98;7.90;;;;;;;-1.44;58.02;99963.06;4989165;28;106135;-78
2022/02/14 02:33:33;;;;;;;19.27;10.10;;;;;;;-1.46;58.27;99960.56;4988600;28;105900;-73
2022/02/14 02:35:58;;;;;;;20.10;10.97;;;;;;;-1.51;58.35;99953.97;4990772;28;105847;-79
2022/02/14 02:38:24;;;;;;;19.83;9.60;;;;;;;-1.51;58.33;99954.78;4987892;28;106646;-75
2022/02/14 02:40:50;;;;;;;21.90;10.98;;;;;;;-1.55;58.31;99955.94;4988648;28;106525;-77
2022/02/14 02:43:17;;;;;;;15.57;8.52;;;;;;;-1.58;58.79;99950.91;4987989;28;106019;-79
2022/02/14 02:45:45;;;;;;;21.65;9.35;;;;;;;-1.60;58.99;99948.41;4989129;28;106388;-80
2022/02/14 02:48:11;;;;;;;15.75;7.10;;;;;;;-1.47;59.68;99948.44;4988356;28;106211;-78
2022/02/14 02:51:01;;;;;;;19.52;7.85;;;;;;;-1.39;59.10;99940.94;4988266;28;106099;-78
2022/02/14 02:53:22;;;;;;;8.52;5.55;;;;;;;-1.22;59.59;99939.00;4987325;28;106451;-80
2022/02/14 02:55:47;;;;;;;16.80;8.43;;;;;;;-1.16;59.58;99938.59;4988308;28;106024;-76
2022/02/14 02:58:12;;;;;;;16.27;9.00;;;;;;;-1.12;59.02;99936.59;4988162;28;106373;-79
2022/02/14 03:00:37;;;;;;;18.30;8.63;;;;;;;-1.12;59.04;99939.22;4988012;28;113673;-80
2022/02/14 03:03:03;;;;;;;15.02;8.05;;;;;;;-1.18;58.97;99943.09;4988330;28;105983;-74
2022/02/14 03:05:28;;;;;;;14.43;7.40;;;;;;;-1.20;59.30;99940.56;4988498;28;106663;-75
2022/02/14 03:07:53;;;;;;;16.63;8.23;;;;;;;-1.23;59.28;99938.16;4987838;28;106681;-78
2022/02/14 03:10:19;;;;;;;25.05;10.00;;;;;;;-1.27;58.71;99946.28;4987356;28;110540;-75
2022/02/14 03:12:44;;;;;;;12.75;7.43;;;;;;;-1.26;59.25;99942.75;4986984;28;105971;-73
2022/02/14 03:15:09;;;;;;;19.75;7.97;;;;;;;-1.22;58.90;99931.16;4987525;28;106416;-73
2022/02/14 03:17:35;;;;;;;16.00;6.88;;;;;;;-1.23;59.03;99945.16;4987837;28;105898;-78
2022/02/14 03:20:00;;;;;;;15.98;6.93;;;;;;;-1.18;59.29;99927.41;4987521;28;106044;-74
2022/02/14 03:22:26;;;;;;;13.98;7.80;;;;;;;-1.17;59.41;99934.31;4987526;28;107680;-75
2022/02/14 03:24:51;;;;;;;23.08;10.55;;;;;;;-1.18;59.28;99926.56;4989987;28;106482;-75
2022/02/14 03:27:16;;;;;;;16.50;8.98;;;;;;;-1.21;59.41;99922.38;4991476;28;106519;-78
2022/02/14 03:29:42;;;;;;;19.08;9.20;;;;;;;-1.28;59.11;99919.31;4990817;28;106327;-74
2022/02/14 03:32:07;;;;;;;21.20;8.88;;;;;;;-1.33;59.73;99912.72;4991003;28;105777;-74
2022/02/14 03:34:33;;;;;;;16.98;8.75;;;;;;;-1.39;60.03;99922.63;4991987;28;106186;-79
2022/02/14 03:36:58;;;;;;;18.10;9.02;;;;;;;-1.42;60.09;99925.47;4989536;28;106237;-84
2022/02/14 03:39:23;;;;;;;22.20;10.00;;;;;;;-1.44;59.93;99924.72;4990895;28;105945;-79
2022/02/14 03:41:49;;;;;;;19.05;8.43;;;;;;;-1.49;59.67;99923.34;4988745;28;106531;-73
2022/02/14 03:44:14;;;;;;;19.23;9.05;;;;;;;-1.55;59.82;99920.19;4991570;28;105771;-79
2022/02/14 03:46:40;;;;;;;11.82;8.10;;;;;;;-1.54;60.38;99919.25;4990751;28;106175;-79
2022/02/14 03:49:05;;;;;;;16.17;7.95;;;;;;;-1.49;60.83;99908.53;4990624;28;105873;-76
2022/02/14 03:51:31;;;;;;;18.55;8.13;;;;;;;-1.45;60.09;99919.59;4990648;28;107195;-83
2022/02/14 03:53:56;;;;;;;14.93;7.65;;;;;;;-1.44;60.60;99919.47;4991524;28;106055;-75
2022/02/14 03:56:21;;;;;;;23.10;8.05;;;;;;;-1.44;60.71;99916.88;4990312;28;113587;-79
2022/02/14 03:58:47;;;;;;;14.50;7.38;;;;;;;-1.44;60.10;99919.47;4990509;28;120492;-74
2022/02/14 04:01:12;;;;;;;14.98;7.25;;;;;;;-1.44;60.67;99922.09;4990323;28;115753;-79
2022/02/14 04:03:37;;;;;;;14.90;8.27;;;;;;;-1.43;60.39;99921.16;4991422;28;106052;-77
2022/02/14 04:06:03;;;;;;;17.65;8.45;;;;;;;-1.44;60.89;99916.88;4989647;28;114083;-80
2022/02/14 04:08:28;;;;;;;14.98;8.90;;;;;;;-1.47;59.90;99917.06;4990139;28;106210;-79
2022/02/14 04:10:53;;;;;;;18.30;8.45;;;;;;;-1.45;60.47;99914.34;4990402;28;106034;-79
2022/02/14 04:13:20;;;;;;;21.52;8.25;;;;;;;-1.44;60.81;99903.81;4990357;28;106157;-77
2022/02/14 04:15:45;;;;;;;16.20;8.52;;;;;;;-1.45;60.77;99914.34;4990725;28;106177;-77
2022/02/14 04:18:10;;;;;;;15.02;8.32;;;;;;;-1.46;60.77;99902.22;4989833;28;106841;-76
2022/02/14 04:20:36;;;;;;;18.05;8.45;;;;;;;-1.48;60.87;99897.09;4989040;28;110147;-80
2022/02/14 04:23:01;;;;;;;15.25;7.07;;;;;;;-1.49;60.68;99892.84;4991539;28;105911;-76
2022/02/14 04:25:27;;;;;;;14.95;7.60;;;;;;;-1.50;60.99;99891.16;4990384;28;105968;-78
2022/02/14 04:27:54;;;;;;;20.60;8.77;;;;;;;-1.53;60.54;99886.16;4989639;28;105952;-78
2022/02/14 04:30:19;;;;;;;16.30;8.38;;;;;;;-1.57;60.91;99892.50;4989462;28;106019;-75
2022/02/14 04:32:45;;;;;;;18.58;8.20;;;;;;;-1.60;60.52;99890.06;4990486;28;105893;-76
2022/02/14 04:35:11;;;;;;;17.65;6.65;;;;;;;-1.59;60.88;99886.53;4989256;28;106253;-74
2022/02/14 04:37:36;;;;;;;17.55;8.77;;;;;;;-1.60;61.37;99884.84;4989101;28;106119;-77
2022/02/14 04:40:02;;;;;;;17.33;8.80;;;;;;;-1.57;60.87;99887.28;4989123;28;106281;-74
2022/02/14 04:42:28;;;;;;;17.38;8.93;;;;;;;-1.59;61.05;99879.50;4990302;28;105976;-76
2022/02/14 04:44:53;;;;;;;13.55;8.60;;;;;;;-1.61;60.83;99878.78;4989655;28;106209;-74
2022/02/14 04:47:18;;;;;;;13.38;8.05;;;;;;;-1.58;61.27;99875.97;4989869;28;105932;-78
2022/02/14 04:49:44;;;;;;;20.00;8.48;;;;;;;-1.52;61.68;99873.91;4989312;28;116383;-76
2022/02/14 04:52:10;;;;;;;17.27;8.10;;;;;;;-1.48;61.63;99878.00;4990292;28;105964;-78
2022/02/14 04:54:35;;;;;;;14.82;7.78;;;;;;;-1.40;61.48;99870.47;4989401;28;106290;-79
2022/02/14 04:57:00;;;;;;;15.75;7.63;;;;;;;-1.35;62.10;99865.78;4988777;28;124489;-78
2022/02/14 04:59:26;;;;;;;11.75;6.78;;;;;;;-1.32;61.58;99870.81;4989900;28;105997;-75
2022/02/14 05:01:51;;;;;;;8.05;5.68;;;;;;;-1.28;61.69;99868.84;4989602;28;106337;-77
2022/02/14 05:04:17;;;;;;;14.93;8.07;;;;;;;-1.26;61.79;99872.19;4988563;28;106140;-75
2022/02/14 05:36:14;;;;;;;6.82;3.63;;;;;;;-1.30;61.92;99878.56;4987139;28;105960;-75
2022/02/14 05:38:39;;;;;;;11.98;5.32;;;;;;;-1.25;62.30;99879.91;4985913;28;105981;-79
2022/02/14 05:41:05;;;;;;;9.68;6.70;;;;;;;-1.18;62.53;99875.13;4983504;28;116071;-80
2022/02/14 05:43:30;;;;;;;9.93;6.00;;;;;;;-1.13;62.97;99873.03;4986595;28;111201;-81
2022/02/14 05:45:55;;;;;;;9.60;3.60;;;;;;;-1.07;62.41;99867.38;4985487;28;106649;-79
2022/02/14 05:48:26;;;;;;;16.45;7.55;;;;;;;-1.00;62.03;99873.03;4985035;28;106031;-79
2022/02/14 05:50:54;;;;;;;8.63;5.28;;;;;;;-0.98;62.71;99875.56;4986231;28;106195;-77
2022/02/14 05:53:19;;;;;;;9.90;6.20;;;;;;;-0.97;62.86;99872.00;4985002;28;106829;-79
2022/02/14 05:55:45;;;;;;;9.40;5.95;;;;;;;-0.98;62.46;99889.47;4984338;28;107084;-81
2022/02/14 05:58:10;;;;;;;6.70;5.00;;;;;;;-0.95;62.53;99870.13;4985900;28;106231;-77
2022/02/14 06:00:36;;;;;;;14.85;7.35;;;;;;;-0.88;62.78;99871.38;4985263;28;106214;-82
2022/02/14 06:03:01;;;;;;;9.32;5.38;;;;;;;-0.83;62.82;99873.66;4985410;28;106076;-80
2022/02/14 06:05:26;;;;;;;11.23;6.50;;;;;;;-0.79;62.99;99865.53;4985671;28;106023;-81
2022/02/14 06:07:52;;;;;;;16.55;7.85;;;;;;;-0.65;62.91;99897.75;4985129;28;106277;-75
2022/02/14 06:10:18;;;;;;;8.35;5.28;;;;;;;-0.51;63.02;99910.69;4984880;28;106252;-83
2022/02/14 06:12:43;;;;;;;10.85;5.45;;;;;;;-0.43;62.45;99891.84;4984017;28;106431;-75
2022/02/14 06:15:09;;;;;;;9.73;4.90;;;;;;;-0.32;62.52;99885.88;4984513;28;106015;-81
2022/02/14 06:17:34;;;;;;;8.80;5.57;;;;;;;-0.21;62.36;99888.56;4985504;28;106111;-84
2022/02/14 06:20:00;;;;;;;7.43;4.55;;;;;;;-0.11;62.44;99897.47;4984772;28;106215;-83
2022/02/14 06:22:25;;;;;;;10.18;7.05;;;;;;;0.14;62.50;99869.50;4983931;28;106189;-81
2022/02/14 06:24:51;;;;;;;11.50;6.55;;;;;;;0.29;62.00;99889.34;4984107;28;106312;-79
2022/02/14 06:27:16;;;;;;;10.25;6.35;;;;;;;0.42;61.69;99881.41;4984669;28;106124;-78
2022/02/14 06:29:41;;;;;;;6.75;4.75;;;;;;;0.54;61.88;99871.81;4979957;28;106425;-78
2022/02/14 06:32:07;;;;;;;9.73;5.32;;;;;;;0.64;61.47;99870.19;4964832;28;106471;-81
2022/02/14 06:34:33;;;;;;;8.73;5.47;;;;;;;0.80;61.78;99871.66;4964471;28;106181;-77
2022/02/14 06:36:58;;;;;;;8.95;5.60;;;;;;;0.98;61.45;99880.75;4965595;28;105940;-79
2022/02/14 06:39:24;;;;;;;11.13;5.18;;;;;;;1.28;61.24;99878.53;4978835;28;106199;-79
2022/02/14 06:41:49;;;;;;;9.45;5.60;;;;;;;1.52;60.75;99873.19;4984008;28;106774;-80
2022/02/14 06:44:15;;;;;;;10.88;5.47;;;;;;;1.74;60.03;99876.75;4984108;28;105851;-77
2022/02/14 06:46:41;;;;;;;6.65;4.35;;;;;;;1.90;59.69;99884.25;4975259;28;106462;-78
2022/02/14 06:49:06;;;;;;;9.57;5.38;;;;;;;2.09;59.51;99883.63;4971707;28;106038;-77
2022/02/14 06:51:35;;;;;;;8.10;4.50;;;;;;;2.22;59.03;99886.09;4970942;28;106027;-79
2022/02/14 06:54:00;;;;;;;9.68;4.50;;;;;;;2.36;58.03;99894.53;4971379;28;106081;-81
2022/02/14 06:56:25;;;;;;;9.05;5.80;;;;;;;2.49;57.92;99893.53;4970298;28;106074;-80
2022/02/14 06:58:51;;;;;;;8.98;5.15;;;;;;;2.59;57.38;99888.38;4970904;28;109840;-81
2022/02/14 07:01:17;;;;;;;7.95;5.05;;;;;;;2.71;57.31;99876.81;4970718;28;106609;-80
2022/02/14 07:03:42;;;;;;;11.30;4.53;;;;;;;2.83;56.91;99875.81;4970987;28;106270;-82
2022/02/14 07:06:09;;;;;;;8.88;5.75;;;;;;;2.92;56.17;99874.19;4971809;28;105997;-75
2022/02/14 07:08:35;;;;;;;9.50;6.25;;;;;;;3.00;56.27;99874.38;4970187;28;106103;-78
2022/02/14 07:11:01;;;;;;;7.38;5.10;;;;;;;3.10;56.36;99876.25;4970597;28;105833;-75
2022/02/14 07:13:26;;;;;;;10.23;6.35;;;;;;;3.18;56.37;99873.78;4970451;28;105986;-76
2022/02/14 07:15:52;;;;;;;12.35;7.13;;;;;;;3.26;55.41;99892.41;4971073;28;106272;-80
2022/02/14 07:18:17;;;;;;;10.00;5.72;;;;;;;3.38;55.15;99883.47;4971172;28;105906;-80
2022/02/14 07:20:43;;;;;;;7.20;4.43;;;;;;;3.52;54.82;99897.25;4970961;28;106002;-81
2022/02/14 07:23:09;;;;;;;8.35;5.22;;;;;;;3.63;54.73;99886.59;4971414;28;105997;-80
2022/02/14 07:25:35;;;;;;;20.17;7.43;;;;;;;3.73;54.25;99890.13;4971668;28;106264;-81
2022/02/14 07:28:01;;;;;;;13.48;6.30;;;;;;;3.80;54.29;99884.31;4971101;28;106115;-78
2022/02/14 07:30:26;;;;;;;9.55;5.95;;;;;;;3.97;53.69;99881.03;4969195;28;106303;-76
2022/02/14 07:32:53;;;;;;;10.52;5.97;;;;;;;4.03;53.69;99888.41;4969431;28;106319;-78
2022/02/14 07:35:18;;;;;;;11.65;6.90;;;;;;;4.15;53.05;99880.38;4968499;28;106206;-78
2022/02/14 07:37:44;;;;;;;8.85;6.47;;;;;;;4.25;52.68;99886.47;4969537;28;106209;-77
2022/02/14 07:40:15;;;;;;;9.65;6.72;;;;;;;4.33;52.37;99880.53;4969527;28;105986;-76
2022/02/14 07:42:41;;;;;;;6.60;4.53;;;;;;;4.39;52.16;99872.91;4969408;28;105959;-76
2022/02/14 07:45:07;;;;;;;7.80;4.90;;;;;;;4.47;51.63;99879.28;4970229;28;105939;-77
2022/02/14 07:47:33;;;;;;;10.10;5.97;;;;;;;4.59;51.98;99875.53;4970028;28;106267;-78
2022/02/14 07:49:59;;;;;;;7.43;4.93;;;;;;;4.66;51.70;99875.81;4969721;28;106083;-77
2022/02/14 07:52:24;;;;;;;11.77;5.60;;;;;;;4.76;51.43;99874.00;4969980;28;105969;-82
2022/02/14 07:54:51;;;;;;;10.70;6.45;;;;;;;4.85;50.93;99882.88;4970566;28;107187;-83
2022/02/14 07:57:17;;;;;;;7.63;5.03;;;;;;;4.91;50.85;99874.41;4969639;28;106170;-77
2022/02/14 07:59:43;;;;;;;9.93;5.80;;;;;;;4.96;50.86;99866.91;4969094;28;106499;-78
2022/02/14 08:02:08;;;;;;;8.73;6.07;;;;;;;5.09;50.33;99861.31;4969649;28;107483;-77
2022/02/14 08:04:34;;;;;;;12.02;5.80;;;;;;;5.20;50.35;99871.69;4970058;28;105911;-79
2022/02/14 08:07:02;;;;;;;11.20;5.93;;;;;;;5.27;50.08;99874.59;4969619;28;106135;-78
2022/02/14 08:09:27;;;;;;;9.73;6.00;;;;;;;5.45;49.96;99860.66;4969531;28;105946;-74
2022/02/14 08:11:52;;;;;;;13.32;7.50;;;;;;;5.51;49.37;99873.25;4969313;28;105980;-74
2022/02/14 08:14:18;;;;;;;9.10;5.70;;;;;;;5.54;49.57;99871.16;4969611;28;106199;-82
2022/02/14 08:16:44;;;;;;;8.60;6.38;;;;;;;5.67;48.90;99918.44;4968957;28;106256;-75
2022/02/14 08:19:09;;;;;;;10.55;5.97;;;;;;;5.80;49.04;99864.41;4968686;28;115912;-75
2022/02/14 08:21:35;;;;;;;8.95;5.68;;;;;;;5.89;48.25;99866.97;4968344;28;105843;-80
2022/02/14 08:24:00;;;;;;;11.98;5.72;;;;;;;6.75;47.55;99860.41;4970456;28;105874;-78
2022/02/14 08:26:26;;;;;;;11.60;6.18;;;;;;;8.10;46.63;99851.94;4969483;28;106191;-82
2022/02/14 08:28:52;;;;;;;12.27;4.53;;;;;;;9.34;44.33;99857.28;4970169;28;106324;-80
2022/02/14 08:31:17;;;;;;;5.38;3.88;;;;;;;9.49;42.56;99839.63;4969084;28;106030;-81
2022/02/14 08:33:42;;;;;;;9.82;6.20;;;;;;;10.14;41.35;99875.72;4969007;28;106075;-77
2022/02/14 08:36:08;;;;;;;8.90;4.45;;;;;;;10.15;39.99;99866.72;4969129;28;106271;-78
2022/02/14 08:38:37;;;;;;;10.05;5.60;;;;;;;10.43;39.93;99850.28;4968703;28;107690;-80
2022/02/14 08:41:04;;;;;;;9.52;6.28;;;;;;;10.86;39.52;99846.28;4968662;28;106378;-79
2022/02/14 08:43:30;;;;;;;7.05;5.22;;;;;;;11.07;38.21;99848.22;4969494;28;105909;-78
2022/02/14 08:45:55;;;;;;;9.05;4.95;;;;;;;11.16;37.82;99845.28;4969310;28;105906;-75
2022/02/14 08:48:20;;;;;;;7.65;5.32;;;;;;;11.55;36.64;99842.53;4968716;28;116697;-81
2022/02/14 08:50:46;;;;;;;10.52;6.28;;;;;;;11.97;35.34;99889.94;4968866;28;106297;-81
2022/02/14 08:53:11;;;;;;;10.85;5.50;;;;;;;12.36;35.40;99859.34;4969860;28;105990;-77
2022/02/14 08:55:37;;;;;;;9.50;5.15;;;;;;;12.88;33.90;99842.34;4969308;28;105975;-77
2022/02/14 08:58:03;;;;;;;9.60;7.13;;;;;;;13.35;33.63;99844.34;4968801;28;105954;-78
2022/02/14 09:00:29;;;;;;;9.23;5.88;;;;;;;14.34;32.69;99846.78;4968838;28;106060;-76
2022/02/14 09:02:54;;;;;;;11.30;6.60;;;;;;;15.07;31.69;99827.22;4970087;28;106281;-77
2022/02/14 09:05:20;;;;;;;9.48;6.35;;;;;;;16.22;29.44;99834.69;4967484;28;106610;-75
2022/02/14 09:07:45;;;;;;;12.30;7.20;;;;;;;17.22;29.06;99838.44;4968296;28;106572;-78
2022/02/14 09:10:11;;;;;;;8.82;6.00;;;;;;;17.42;26.88;99840.09;4966436;28;108910;-76
2022/02/14 09:12:37;;;;;;;8.15;5.82;;;;;;;17.27;27.09;99834.28;4969278;28;106052;-78
2022/02/14 09:15:03;;;;;;;10.35;6.07;;;;;;;17.82;26.48;99834.22;4968612;28;106153;-74
2022/02/14 09:17:29;;;;;;;8.38;5.43;;;;;;;17.85;25.58;99833.81;4968212;28;106120;-76
2022/02/14 09:19:54;;;;;;;9.52;6.22;;;;;;;18.12;25.68;99822.69;4967581;28;106051;-75
2022/02/14 09:22:20;;;;;;;9.68;5.90;;;;;;;18.18;24.73;99818.25;4967320;28;105974;-73
2022/02/14 09:24:46;;;;;;;6.93;5.65;;;;;;;18.83;25.07;99808.53;4968226;28;106191;-75
2022/02/14 09:27:12;;;;;;;9.32;5.75;;;;;;;19.14;23.38;99814.66;4967749;28;107942;-77
2022/02/14 09:29:38;;;;;;;7.13;5.50;;;;;;;18.85;23.47;99842.31;4968155;28;106567;-81
2022/02/14 09:32:04;;;;;;;9.73;6.30;;;;;;;18.92;23.45;99793.66;4968927;28;106029;-79
2022/02/14 09:34:30;;;;;;;9.40;6.13;;;;;;;19.17;23.57;99816.88;4968005;28;106214;-76
2022/02/14 09:36:56;;;;;;;8.35;5.18;;;;;;;19.27;22.70;99855.72;4968873;28;106268;-77
2022/02/14 09:39:22;;;;;;;8.45;5.60;;;;;;;19.04;22.70;99799.03;4968090;28;106057;-73
2022/02/14 09:41:48;;;;;;;11.25;6.25;;;;;;;19.84;22.31;99796.66;4968511;28;105968;-78
2022/02/14 09:44:14;;;;;;;14.25;6.18;;;;;;;20.62;22.48;99805.84;4966785;28;106294;-75
2022/02/14 09:46:40;;;;;;;10.00;6.05;;;;;;;21.02;21.29;99808.66;4968529;28;105800;-81
2022/02/14 09:49:06;;;;;;;9.95;6.03;;;;;;;20.82;20.52;99811.88;4968358;28;106065;-76
2022/02/14 09:51:34;;;;;;;9.63;5.55;;;;;;;20.41;20.87;99803.91;4969288;28;105882;-72
2022/02/14 09:53:59;;;;;;;9.10;5.45;;;;;;;20.88;20.69;99800.88;4968020;28;106212;-72
2022/02/14 09:56:29;;;;;;;7.63;6.30;;;;;;;21.47;20.40;99791.38;4967893;28;106535;-74
2022/02/14 09:58:55;;;;;;;7.90;5.72;;;;;;;22.02;20.09;99786.03;4967709;28;105940;-76
2022/02/14 10:01:21;;;;;;;8.60;5.82;;;;;;;21.95;19.27;99792.50;4968690;28;105907;-76
2022/02/14 10:03:53;;;;;;;8.52;5.22;;;;;;;22.80;18.84;99791.09;4967931;28;106175;-74
2022/02/14 10:06:29;;;;;;;10.27;6.88;;;;;;;23.53;18.97;99808.63;4967411;28;105946;-74
2022/02/14 10:09:08;;;;;;;10.00;6.57;;;;;;;23.36;18.70;99806.09;4967787;28;106329;-77
2022/02/14 10:11:36;;;;;;;10.45;6.57;;;;;;;23.41;18.38;99825.13;4968075;28;105919;-75
2022/02/14 10:14:14;;;;;;;10.32;6.63;;;;;;;23.26;18.65;99810.38;4967227;28;106257;-75
2022/02/14 10:17:00;;;;;;;11.10;7.63;;;;;;;23.88;18.96;99782.59;4950058;28;106042;-76
2022/02/14 10:19:26;;;;;;;10.80;6.53;;;;;;;24.63;18.08;99790.34;4947899;28;105888;-75
2022/02/14 10:21:52;;;;;;;11.25;7.22;;;;;;;24.46;17.55;99793.31;4950080;28;106144;-76
2022/02/14 10:24:17;;;;;;;10.18;6.38;;;;;;;23.53;17.81;99763.22;4951804;28;106252;-72
2022/02/14 10:26:45;;;;;;;12.80;7.57;;;;;;;23.83;17.72;99802.47;4950859;28;106902;-75
2022/02/14 10:29:24;;;;;;;10.30;5.97;;;;;;;23.89;17.67;99776.91;4951283;28;105997;-77
2022/02/14 10:31:58;;;;;;;7.13;5.28;;;;;;;22.48;17.77;99778.34;4952232;28;105921;-73
2022/02/14 10:34:35;;;;;;;8.88;5.18;;;;;;;22.30;18.22;99782.25;4957029;28;106096;-74
2022/02/14 10:37:01;;;;;;;8.52;4.75;;;;;;;22.53;18.05;99775.69;4959723;28;106245;-77
2022/02/14 10:39:28;;;;;;;9.27;4.95;;;;;;;22.29;17.94;99759.72;4953676;28;106209;-74
2022/02/14 10:42:04;;;;;;;6.35;4.50;;;;;;;22.62;17.94;99774.13;4959908;28;106055;-74
2022/02/14 10:47:31;;;;;;;7.28;4.43;;;;;;;22.10;17.88;99751.16;4959354;28;106444;-74
2022/02/14 10:50:11;;;;;;;5.95;4.78;;;;;;;22.10;18.04;99758.47;4958956;28;105790;-74
2022/02/14 10:52:41;;;;;;;6.47;4.20;;;;;;;22.59;17.61;99762.97;4965203;28;106075;-75
2022/02/14 10:55:15;;;;;;;6.20;4.45;;;;;;;23.01;17.34;99802.09;4967230;28;106350;-76
2022/02/14 10:57:43;;;;;;;7.65;5.25;;;;;;;23.17;17.11;99778.53;4950539;28;106729;-75
2022/02/14 11:00:36;;;;;;;8.73;5.43;;;;;;;23.04;17.31;99737.16;4951387;28;106282;-74
2022/02/14 11:03:06;;;;;;;7.90;5.60;;;;;;;23.35;17.40;99731.06;4961021;28;106293;-75
2022/02/14 11:05:32;;;;;;;;;;;;;;;23.11;17.01;99720.63;4959961;28;105913;-75
2022/02/14 11:07:58;;;;;;;8.18;4.90;;;;;;;23.53;16.80;99727.88;4959467;28;106314;-78
2022/02/14 11:10:23;;;;;;;6.78;5.43;;;;;;;23.14;16.35;99712.81;4960615;28;106020;-79
2022/02/14 11:12:56;;;;;;;7.07;4.45;;;;;;;23.02;16.96;99738.50;4959570;28;106036;-77
2022/02/14 11:15:30;;;;;;;9.95;5.30;;;;;;;22.92;17.00;99710.22;4960072;28;106045;-77
2022/02/14 11:18:08;;;;;;;7.72;4.93;;;;;;;23.14;17.12;99696.50;4959456;28;106651;-76
2022/02/14 11:20:34;;;;;;;8.60;4.53;;;;;;;23.25;16.93;99731.84;4958741;28;106558;-73
2022/02/14 11:23:01;;;;;;;6.78;5.15;;;;;;;23.28;16.76;99698.72;4959821;28;106056;-75
2022/02/14 11:25:45;;;;;;;10.57;5.18;;;;;;;24.12;16.13;99693.16;4960439;28;106215;-76
2022/02/14 11:28:19;;;;;;;10.50;5.43;;;;;;;25.48;15.62;99712.47;4967458;28;105998;-76
2022/02/14 11:31:06;;;;;;;7.00;4.47;;;;;;;25.53;15.38;99761.50;4969710;28;105875;-75
2022/02/14 11:33:32;;;;;;;7.90;4.93;;;;;;;25.22;15.36;99703.53;4966189;28;106085;-73
2022/02/14 11:36:07;;;;;;;7.60;4.90;;;;;;;24.56;15.73;99717.06;4960745;28;106521;-74
2022/02/14 11:38:54;;;;;;;6.57;5.13;;;;;;;24.33;15.46;99696.69;4957926;28;107074;-75
2022/02/14 11:41:41;;;;;;;6.53;4.95;;;;;;;24.26;15.73;99707.88;4959796;28;106517;-73
2022/02/14 11:44:12;;;;;;;8.73;5.05;;;;;;;23.74;15.96;99707.00;4962321;28;106245;-74
2022/02/14 11:46:42;;;;;;;6.05;4.53;;;;;;;23.65;16.29;99708.59;4950321;28;106377;-77
2022/02/14 11:49:07;;;;;;;7.82;4.88;;;;;;;23.71;16.17;99684.97;4951403;28;106048;-76
2022/02/14 11:51:37;;;;;;;7.63;5.60;;;;;;;24.08;16.33;99681.19;4957123;28;106140;-75
2022/02/14 11:54:05;;;;;;;9.77;5.73;;;;;;;25.45;14.86;99686.56;4961597;28;106051;-77
2022/02/14 11:56:32;;;;;;;6.53;4.72;;;;;;;24.66;15.74;99689.06;4956332;28;106184;-73